NCAR-RAP Real-Time Weather Data

Output produced by METARs form (12 May 2021  10:58 UTC)
found at http://weather.rap.ucar.edu/surface/
 
KORH 121054Z 29007G15KT 10SM CLR 06/00 A3002 RMK AO2 SLP169 T00610000
KORH 120954Z AUTO 27013G19KT 10SM CLR 05/M01 A2997 RMK AO2 SLP155 T00501006
KORH 120854Z AUTO 27014KT 10SM CLR 05/M01 A2997 RMK AO2 SLP152 T00501011 56004
KORH 120754Z AUTO 27009KT 10SM CLR 05/M02 A2997 RMK AO2 SLP153 T00501017
KORH 120654Z AUTO 27014KT 10SM CLR 06/M02 A2996 RMK AO2 SLP148 T00561022
KORH 120554Z AUTO 27013KT 10SM CLR 07/M03 A2998 RMK AO2 SLP154 T00671028 10111 20067 58001
KORH 120454Z AUTO 28010G19KT 10SM CLR 07/M04 A2998 RMK AO2 SLP158 T00721039 401500072
KORH 120354Z AUTO 28013KT 10SM CLR 08/M04 A2998 RMK AO2 SLP156 T00781044
KORH 120254Z AUTO 28010KT 10SM CLR 07/M03 A2998 RMK AO2 SLP155 T00721033 50005
KORH 120154Z AUTO 27009KT 10SM CLR 09/M03 A2998 RMK AO2 SLP157 T00891033
KORH 120054Z 28013G21KT 10SM CLR 09/M04 A2998 RMK AO2 SLP157 T00941039
KORH 112354Z 30009G19KT 10SM CLR 11/M04 A2996 RMK AO2 SLP150 T01111044 10150 20111 53012
KORH 112254Z 28011G21KT 10SM CLR 13/M05 A2994 RMK AO2 PK WND 28026/2201 SLP142 T01281050
KORH 112154Z 27017G22KT 10SM CLR 13/M05 A2993 RMK AO2 PK WND 27027/2141 SLP139 T01331050
KORH 112054Z 27018G28KT 10SM SCT085 SCT100 14/M06 A2993 RMK AO2 PK WND 26028/2054 SLP136 T01391056 55001
KORH 111954Z 29017G23KT 10SM BKN090 14/M05 A2992 RMK AO2 PK WND 33030/1919 SLP134 T01391050